Terminal Aerodrome Forecast
Issued by NWS

Home | Current Version | Previous Version | Graphics & Text | Print | Product List | Glossary On
Versions: 1 2 3 4 5 6 7 8 9 10 11 12 13 14 15
000
FTUS43 KBIS 181100
TAFMOT
TAF
KMOT 181129Z 1812/1912 12011KT P6SM BKN050 OVC070
     FM181500 12019G27KT P6SM BKN090 OVC120
     FM182000 13025G34KT P6SM VCSH BKN050 OVC090
      TEMPO 1822/1901 -SHRA BKN035 OVC050
     FM190100 11011KT P6SM -RA BKN045 OVC060
     FM190400 VRB05KT P6SM VCSH BKN050 BKN080
     FM190700 25010KT P6SM FEW050 SCT120=

USA.gov is the U.S. government's official web portal to all federal, state and local government web resources and services.